createdAt,value
2019-03-01T00:02:23.554Z,6.10
2019-03-01T00:05:02.469Z,6.60
2019-03-01T00:08:04.186Z,4.70
2019-03-01T00:10:50.734Z,5.03
2019-03-01T00:13:29.918Z,5.60
2019-03-01T00:16:25.671Z,5.10
2019-03-01T00:19:22.877Z,4.40
2019-03-01T00:22:16.764Z,4.37
2019-03-01T00:24:50.099Z,3.80
2019-03-01T00:27:20.259Z,4.43
2019-03-01T00:30:05.493Z,3.77
2019-03-01T00:32:41.183Z,3.77
2019-03-01T00:35:31.104Z,3.33
2019-03-01T00:38:22.354Z,3.57
2019-03-01T00:41:04.648Z,3.53
2019-03-01T00:44:02.068Z,3.20
2019-03-01T00:46:28.566Z,2.70
2019-03-01T00:48:54.976Z,3.40
2019-03-01T00:51:21.268Z,2.90
2019-03-01T00:53:47.539Z,2.50
2019-03-01T00:56:14.095Z,2.93
2019-03-01T00:58:40.463Z,2.60
2019-03-01T01:01:06.963Z,2.37
2019-03-01T01:03:33.482Z,2.63
2019-03-01T01:05:59.810Z,2.80
2019-03-01T01:08:26.079Z,2.67
2019-03-01T01:10:52.491Z,2.93
2019-03-01T01:13:18.870Z,2.50
2019-03-01T01:15:45.250Z,2.13
2019-03-01T01:18:11.555Z,2.73
2019-03-01T01:20:38.291Z,2.97
2019-03-01T01:23:05.103Z,2.77
2019-03-01T01:25:31.638Z,2.73
2019-03-01T01:27:57.934Z,3.10
2019-03-01T01:30:24.305Z,3.27
2019-03-01T01:32:50.950Z,3.07
2019-03-01T01:35:17.343Z,3.17
2019-03-01T01:37:43.998Z,2.60
2019-03-01T01:40:10.470Z,2.67
2019-03-01T01:42:36.830Z,2.93
2019-03-01T01:45:06.098Z,3.07
2019-03-01T01:47:32.368Z,2.70
2019-03-01T01:49:58.683Z,3.10
2019-03-01T01:52:25.310Z,2.97
2019-03-01T01:54:51.611Z,3.10
2019-03-01T01:57:17.898Z,3.70
2019-03-01T01:59:44.287Z,3.80
2019-03-01T02:02:10.670Z,3.37
2019-03-01T02:04:36.970Z,3.10
2019-03-01T02:07:03.344Z,2.47
2019-03-01T02:09:29.790Z,2.73
2019-03-01T02:11:56.064Z,2.67
2019-03-01T02:14:22.955Z,3.33
2019-03-01T02:16:49.406Z,3.00
2019-03-01T02:19:15.690Z,3.20
2019-03-01T02:21:42.207Z,3.37
2019-03-01T02:24:08.785Z,3.03
2019-03-01T02:26:35.046Z,2.87
2019-03-01T02:29:01.536Z,2.97
2019-03-01T02:31:27.827Z,3.07
2019-03-01T02:33:54.371Z,3.53
2019-03-01T02:36:20.932Z,2.90
2019-03-01T02:38:48.323Z,3.20
2019-03-01T02:41:14.629Z,3.53
2019-03-01T02:43:40.929Z,3.70
2019-03-01T02:46:07.390Z,3.50
2019-03-01T02:48:33.799Z,3.47
2019-03-01T02:51:00.156Z,3.03
2019-03-01T02:53:26.555Z,2.93
2019-03-01T02:55:52.920Z,3.83
2019-03-01T02:58:19.490Z,3.27
2019-03-01T03:00:45.980Z,3.00
2019-03-01T03:03:12.355Z,3.23
2019-03-01T03:05:40.552Z,2.87
2019-03-01T03:08:08.839Z,3.37
2019-03-01T03:10:35.127Z,3.30
2019-03-01T03:13:03.596Z,3.33
2019-03-01T03:15:31.994Z,3.03
2019-03-01T03:17:58.451Z,3.03
2019-03-01T03:20:24.949Z,3.07
2019-03-01T03:22:51.480Z,3.00
2019-03-01T03:25:17.956Z,3.63
2019-03-01T03:27:44.227Z,3.47
2019-03-01T03:30:15.680Z,2.53
2019-03-01T03:32:42.033Z,3.07
2019-03-01T03:35:08.710Z,3.40
2019-03-01T03:37:35.104Z,2.77
2019-03-01T03:40:02.369Z,3.90
2019-03-01T03:42:29.150Z,2.70
2019-03-01T03:44:55.624Z,2.73
2019-03-01T03:47:22.012Z,3.13
2019-03-01T03:49:48.405Z,2.33
2019-03-01T03:52:15.056Z,3.17
2019-03-01T03:54:41.414Z,2.90
2019-03-01T03:57:07.805Z,2.87
2019-03-01T03:59:34.274Z,2.53
2019-03-01T04:02:01.036Z,2.13
2019-03-01T04:04:27.511Z,2.70
2019-03-01T04:06:54.116Z,2.83
2019-03-01T04:09:20.492Z,2.13
2019-03-01T04:11:46.883Z,2.63
2019-03-01T04:14:13.145Z,2.30
2019-03-01T04:16:39.784Z,2.60
2019-03-01T04:19:06.052Z,2.63
2019-03-01T04:21:32.433Z,2.40
2019-03-01T04:23:58.704Z,2.23
2019-03-01T04:26:25.083Z,2.50
2019-03-01T04:28:51.738Z,2.80
2019-03-01T04:31:18.096Z,2.80
2019-03-01T04:33:44.644Z,2.83
2019-03-01T04:36:11.270Z,3.20
2019-03-01T04:38:37.632Z,3.17
2019-03-01T04:41:04.163Z,2.80
2019-03-01T04:43:30.542Z,2.60
2019-03-01T04:45:58.083Z,2.57
2019-03-01T04:48:24.398Z,2.37
2019-03-01T04:50:50.789Z,2.23
2019-03-01T04:53:17.271Z,3.03
2019-03-01T04:55:43.530Z,2.50
2019-03-01T04:58:09.863Z,2.57
2019-03-01T05:00:36.135Z,2.50
2019-03-01T05:03:02.655Z,2.67
2019-03-01T05:05:29.255Z,2.70
2019-03-01T05:07:55.514Z,2.57
2019-03-01T05:10:21.927Z,2.43
2019-03-01T05:12:49.391Z,2.20
2019-03-01T05:15:21.291Z,2.63
2019-03-01T05:17:47.819Z,2.77
2019-03-01T05:20:14.210Z,2.40
2019-03-01T05:22:40.842Z,2.20
2019-03-01T05:25:08.766Z,2.27
2019-03-01T05:27:35.136Z,2.80
2019-03-01T05:30:01.823Z,2.40
2019-03-01T05:32:29.386Z,2.10
2019-03-01T05:34:55.686Z,2.23
2019-03-01T05:37:22.055Z,1.73
2019-03-01T05:39:48.462Z,1.70
2019-03-01T05:42:14.830Z,1.90
2019-03-01T05:44:41.474Z,2.03
2019-03-01T05:47:07.845Z,1.77
2019-03-01T05:49:34.502Z,1.60
2019-03-01T05:52:01.076Z,1.90
2019-03-01T05:54:27.667Z,1.50
2019-03-01T05:56:54.112Z,1.63
2019-03-01T05:59:21.303Z,1.43
2019-03-01T06:01:51.369Z,1.30
2019-03-01T06:04:26.898Z,1.47
2019-03-01T06:07:23.818Z,1.30
2019-03-01T06:09:53.930Z,1.23
2019-03-01T06:12:33.090Z,1.10
2019-03-01T06:15:24.192Z,1.10
2019-03-01T06:17:59.863Z,1.20
2019-03-01T06:20:45.095Z,1.20
2019-03-01T06:23:15.151Z,0.97
2019-03-01T06:26:08.794Z,0.97
2019-03-01T06:28:39.122Z,1.00
2019-03-01T06:31:18.043Z,1.20
2019-03-01T06:33:58.487Z,1.27
2019-03-01T06:36:58.914Z,1.10
2019-03-01T06:39:43.284Z,1.07
2019-03-01T06:42:19.143Z,1.00
2019-03-01T06:44:55.235Z,1.30
2019-03-01T06:47:38.552Z,1.40
2019-03-01T06:50:07.703Z,1.30
2019-03-01T06:52:34.096Z,1.63
2019-03-01T06:55:00.458Z,1.30
2019-03-01T06:57:27.019Z,1.50
2019-03-01T06:59:54.563Z,1.60
2019-03-01T07:02:22.826Z,1.67
2019-03-01T07:04:49.129Z,1.40
2019-03-01T07:07:15.495Z,1.40
2019-03-01T07:09:42.569Z,1.50
2019-03-01T07:12:09.154Z,1.40
2019-03-01T07:14:35.448Z,1.50
2019-03-01T07:17:01.706Z,1.70
2019-03-01T07:19:27.991Z,1.60
2019-03-01T07:21:54.557Z,1.57
2019-03-01T07:24:20.885Z,1.53
2019-03-01T07:26:47.320Z,1.90
2019-03-01T07:29:13.858Z,1.80
2019-03-01T07:31:40.119Z,1.80
2019-03-01T07:34:06.431Z,1.63
2019-03-01T07:36:33.258Z,1.47
2019-03-01T07:38:59.674Z,1.50
2019-03-01T07:41:26.352Z,1.70
2019-03-01T07:43:52.725Z,1.60
2019-03-01T07:46:19.150Z,1.53
2019-03-01T07:48:47.724Z,1.23
2019-03-01T07:51:14.040Z,1.73
2019-03-01T07:53:42.087Z,1.77
2019-03-01T07:56:08.531Z,1.53
2019-03-01T07:58:34.960Z,1.87
2019-03-01T08:01:01.360Z,1.50
2019-03-01T08:03:27.742Z,1.67
2019-03-01T08:05:54.230Z,1.77
2019-03-01T08:08:20.489Z,1.90
2019-03-01T08:10:46.787Z,1.97
2019-03-01T08:13:14.799Z,1.80
2019-03-01T08:15:45.051Z,2.10
2019-03-01T08:18:09.628Z,2.07
2019-03-01T08:20:36.382Z,2.13
2019-03-01T08:23:02.845Z,2.50
2019-03-01T08:25:29.578Z,2.37
2019-03-01T08:27:55.839Z,2.40
2019-03-01T08:30:22.111Z,3.40
2019-03-01T08:32:48.663Z,2.90
2019-03-01T08:35:17.928Z,2.50
2019-03-01T08:37:44.675Z,3.30
2019-03-01T08:40:17.878Z,2.80
2019-03-01T08:42:44.473Z,2.80
2019-03-01T08:45:14.099Z,3.30
2019-03-01T08:47:40.592Z,3.30
2019-03-01T08:50:10.075Z,3.57
2019-03-01T08:52:37.273Z,3.40
2019-03-01T08:55:08.383Z,3.57
2019-03-01T08:57:43.788Z,3.63
2019-03-01T09:00:12.406Z,4.27
2019-03-01T09:02:39.063Z,3.80
2019-03-01T09:05:08.932Z,3.90
2019-03-01T09:07:36.323Z,4.17
2019-03-01T09:10:06.176Z,4.37
2019-03-01T09:12:32.561Z,4.73
2019-03-01T09:14:59.058Z,4.37
2019-03-01T09:17:25.348Z,5.03
2019-03-01T09:19:51.748Z,4.83
2019-03-01T09:22:18.374Z,4.83
2019-03-01T09:24:44.661Z,4.57
2019-03-01T09:27:11.191Z,4.97
2019-03-01T09:29:41.746Z,4.73
2019-03-01T09:32:06.118Z,4.60
2019-03-01T09:34:33.064Z,4.73
2019-03-01T09:36:59.716Z,5.37
2019-03-01T09:39:26.261Z,5.13
2019-03-01T09:42:02.671Z,4.63
2019-03-01T09:44:21.024Z,5.37
2019-03-01T09:46:47.800Z,5.27
2019-03-01T09:49:14.200Z,5.87
2019-03-01T09:51:43.606Z,6.77
2019-03-01T09:54:09.409Z,5.90
2019-03-01T09:56:37.849Z,5.17
2019-03-01T09:59:04.534Z,5.60
2019-03-01T10:01:31.124Z,6.13
2019-03-01T10:03:57.629Z,6.17
2019-03-01T10:06:24.014Z,6.00
2019-03-01T10:08:50.405Z,6.13
2019-03-01T10:11:16.781Z,6.13
2019-03-01T10:13:43.272Z,9.13
2019-03-01T10:16:09.663Z,10.63
2019-03-01T10:18:36.206Z,11.57
2019-03-01T10:21:02.974Z,13.97
2019-03-01T10:23:29.259Z,13.83
2019-03-01T10:25:55.814Z,15.87
2019-03-01T10:28:22.572Z,15.80
2019-03-01T10:30:49.035Z,16.20
2019-03-01T10:33:15.667Z,17.67
2019-03-01T10:35:42.054Z,16.60
2019-03-01T10:38:08.591Z,17.47
2019-03-01T10:40:35.242Z,16.63
2019-03-01T10:43:01.767Z,17.00
2019-03-01T10:45:28.982Z,16.83
2019-03-01T10:47:55.373Z,17.37
2019-03-01T10:50:21.759Z,16.97
2019-03-01T10:52:48.018Z,17.20
2019-03-01T10:55:18.105Z,18.73
2019-03-01T10:57:44.667Z,19.83
2019-03-01T11:00:23.939Z,22.13
2019-03-01T11:02:50.615Z,22.37
2019-03-01T11:05:17.107Z,22.17
2019-03-01T11:07:43.938Z,23.37
2019-03-01T11:10:18.198Z,23.90
2019-03-01T11:12:44.671Z,26.40
2019-03-01T11:15:12.439Z,28.63
2019-03-01T11:17:38.698Z,27.50
2019-03-01T11:20:13.412Z,28.27
2019-03-01T11:22:39.754Z,33.20
2019-03-01T11:25:12.230Z,29.97
2019-03-01T11:27:38.491Z,28.17
2019-03-01T11:30:14.223Z,28.33
2019-03-01T11:32:40.884Z,26.43
2019-03-01T11:35:07.373Z,28.10
2019-03-01T11:37:33.736Z,27.43
2019-03-01T11:40:00.262Z,25.70
2019-03-01T11:42:26.686Z,24.40
2019-03-01T11:44:53.077Z,24.23
2019-03-01T11:47:19.461Z,25.57
2019-03-01T11:49:45.833Z,21.40
2019-03-01T11:52:12.475Z,21.57
2019-03-01T11:54:38.746Z,22.70
2019-03-01T11:57:05.522Z,22.60
2019-03-01T11:59:31.892Z,22.37
2019-03-01T12:01:58.287Z,22.37
2019-03-01T12:04:24.751Z,22.33
2019-03-01T12:06:52.702Z,22.20
2019-03-01T12:09:19.236Z,22.83
2019-03-01T12:11:45.810Z,19.37
2019-03-01T12:14:12.331Z,17.93
2019-03-01T12:16:38.696Z,17.00
2019-03-01T12:19:05.058Z,17.17
2019-03-01T12:21:31.757Z,17.10
2019-03-01T12:23:58.152Z,15.67
2019-03-01T12:26:24.524Z,15.87
2019-03-01T12:28:51.073Z,14.43
2019-03-01T12:31:17.687Z,14.30
2019-03-01T12:33:44.079Z,13.50
2019-03-01T12:36:10.347Z,13.23
2019-03-01T12:38:36.915Z,12.60
2019-03-01T12:41:03.206Z,12.20
2019-03-01T12:43:29.577Z,12.87
2019-03-01T12:45:56.282Z,12.90
2019-03-01T12:48:22.691Z,12.47
2019-03-01T12:50:49.066Z,13.27
2019-03-01T12:53:15.522Z,13.53
2019-03-01T12:55:41.980Z,13.20
2019-03-01T12:58:08.639Z,13.60
2019-03-01T13:00:37.111Z,12.47
2019-03-01T13:03:05.336Z,11.83
2019-03-01T13:05:33.114Z,11.00
2019-03-01T13:07:59.519Z,12.17
2019-03-01T13:10:33.295Z,11.03
2019-03-01T13:13:02.120Z,11.27
2019-03-01T13:15:27.932Z,10.67
2019-03-01T13:17:54.535Z,12.10
2019-03-01T13:20:20.795Z,11.43
2019-03-01T13:22:47.424Z,10.73
2019-03-01T13:25:15.713Z,11.40
2019-03-01T13:27:42.539Z,10.17
2019-03-01T13:30:12.307Z,9.80
2019-03-01T13:32:38.686Z,10.03
2019-03-01T13:35:12.381Z,10.07
2019-03-01T13:37:38.549Z,10.13
2019-03-01T13:40:10.478Z,11.10
2019-03-01T13:42:37.012Z,9.57
2019-03-01T13:45:06.711Z,10.00
2019-03-01T13:47:34.093Z,10.90
2019-03-01T13:50:05.442Z,9.30
2019-03-01T13:52:31.263Z,10.03
2019-03-01T13:54:57.896Z,9.57
2019-03-01T13:57:24.178Z,9.27
2019-03-01T13:59:50.453Z,9.07
2019-03-01T14:02:17.852Z,8.63
2019-03-01T14:04:45.235Z,10.03
2019-03-01T14:07:11.551Z,9.00
2019-03-01T14:09:37.917Z,9.80
2019-03-01T14:12:04.303Z,9.33
2019-03-01T14:14:30.658Z,9.67
2019-03-01T14:16:57.214Z,10.50
2019-03-01T14:19:23.731Z,10.93
2019-03-01T14:21:50.157Z,11.53
2019-03-01T14:24:16.498Z,11.67
2019-03-01T14:26:42.912Z,12.33
2019-03-01T14:29:09.434Z,12.10
2019-03-01T14:31:35.723Z,12.27
2019-03-01T14:34:02.109Z,10.30
2019-03-01T14:36:29.473Z,11.07
2019-03-01T14:38:55.871Z,9.93
2019-03-01T14:41:22.396Z,10.87
2019-03-01T14:43:48.988Z,10.23
2019-03-01T14:46:17.612Z,8.90
2019-03-01T14:48:46.120Z,9.10
2019-03-01T14:51:12.835Z,9.83
2019-03-01T14:53:39.318Z,9.40
2019-03-01T14:56:09.374Z,9.07
2019-03-01T14:58:48.606Z,9.03
2019-03-01T15:01:26.883Z,8.70
2019-03-01T15:03:53.415Z,8.90
2019-03-01T15:06:21.354Z,9.27
2019-03-01T15:08:47.648Z,8.10
2019-03-01T15:11:14.039Z,8.53
2019-03-01T15:13:41.018Z,8.30
2019-03-01T15:16:07.282Z,8.67
2019-03-01T15:18:34.418Z,8.10
2019-03-01T15:21:02.526Z,9.17
2019-03-01T15:23:29.141Z,9.03
2019-03-01T15:25:55.502Z,8.23
2019-03-01T15:28:21.895Z,8.20
2019-03-01T15:30:48.256Z,8.73
2019-03-01T15:33:14.554Z,8.53
2019-03-01T15:35:41.020Z,8.60
2019-03-01T15:38:07.411Z,7.83
2019-03-01T15:40:33.866Z,8.63
2019-03-01T15:43:01.628Z,7.90
2019-03-01T15:45:27.985Z,9.00
2019-03-01T15:47:54.406Z,9.13
2019-03-01T15:50:23.782Z,8.53
2019-03-01T15:52:49.853Z,9.77
2019-03-01T15:55:17.231Z,8.90
2019-03-01T15:57:43.495Z,8.10
2019-03-01T16:00:16.573Z,7.83
2019-03-01T16:02:43.243Z,7.90
2019-03-01T16:05:11.134Z,8.40
2019-03-01T16:07:37.507Z,8.53
2019-03-01T16:10:07.398Z,7.77
2019-03-01T16:12:36.103Z,7.20
2019-03-01T16:15:05.519Z,7.17
2019-03-01T16:17:32.069Z,6.83
2019-03-01T16:19:58.576Z,6.93
2019-03-01T16:22:24.875Z,6.77
2019-03-01T16:24:51.255Z,6.90
2019-03-01T16:27:17.623Z,7.70
2019-03-01T16:29:44.126Z,7.30
2019-03-01T16:32:10.490Z,5.93
2019-03-01T16:34:37.784Z,7.03
2019-03-01T16:37:05.423Z,6.30
2019-03-01T16:39:31.716Z,5.93
2019-03-01T16:41:58.083Z,5.50
2019-03-01T16:44:24.342Z,6.13
2019-03-01T16:46:50.656Z,6.30
2019-03-01T16:49:16.987Z,6.10
2019-03-01T16:51:43.632Z,7.00
2019-03-01T16:54:15.288Z,6.27
2019-03-01T16:56:39.350Z,5.87
2019-03-01T16:59:07.307Z,5.23
2019-03-01T17:01:33.896Z,5.70
2019-03-01T17:04:00.520Z,5.80
2019-03-01T17:06:27.139Z,6.13
2019-03-01T17:08:53.503Z,6.77
2019-03-01T17:11:20.086Z,7.80
2019-03-01T17:13:46.706Z,7.27
2019-03-01T17:16:12.998Z,7.03
2019-03-01T17:18:39.330Z,7.40
2019-03-01T17:21:08.817Z,7.20
2019-03-01T17:23:35.995Z,6.20
2019-03-01T17:26:03.764Z,6.33
2019-03-01T17:28:30.160Z,6.20
2019-03-01T17:30:58.166Z,7.63
2019-03-01T17:33:24.876Z,9.73
2019-03-01T17:35:51.258Z,8.77
2019-03-01T17:38:17.993Z,8.47
2019-03-01T17:40:44.359Z,8.83
2019-03-01T17:43:10.901Z,9.80
2019-03-01T17:45:37.293Z,12.17
2019-03-01T17:48:03.818Z,12.43
2019-03-01T17:50:30.099Z,12.80
2019-03-01T17:52:56.751Z,13.47
2019-03-01T17:55:27.153Z,16.97
2019-03-01T17:57:53.636Z,16.63
2019-03-01T18:00:40.155Z,14.70
2019-03-01T18:03:06.509Z,13.60
2019-03-01T18:05:32.966Z,12.37
2019-03-01T18:08:03.510Z,11.70
2019-03-01T18:10:28.710Z,11.00
2019-03-01T18:12:56.967Z,10.23
2019-03-01T18:15:23.670Z,10.60
2019-03-01T18:17:50.140Z,11.23
2019-03-01T18:20:16.428Z,9.20
2019-03-01T18:22:42.959Z,11.17
2019-03-01T18:25:13.333Z,10.93
2019-03-01T18:27:39.798Z,10.73
2019-03-01T18:30:24.306Z,11.47
2019-03-01T18:32:50.781Z,11.63
2019-03-01T18:35:17.626Z,11.13
2019-03-01T18:37:43.891Z,11.37
2019-03-01T18:40:13.510Z,10.60
2019-03-01T18:42:39.747Z,11.10
2019-03-01T18:45:09.247Z,11.73
2019-03-01T18:47:35.737Z,12.07
2019-03-01T18:50:05.657Z,11.70
2019-03-01T18:52:32.273Z,12.50
2019-03-01T18:54:58.566Z,12.30
2019-03-01T18:57:24.834Z,11.83
2019-03-01T18:59:51.398Z,13.37
2019-03-01T19:02:17.654Z,14.10
2019-03-01T19:04:44.047Z,12.80
2019-03-01T19:07:10.311Z,13.27
2019-03-01T19:09:36.603Z,14.13
2019-03-01T19:12:03.329Z,12.53
2019-03-01T19:14:29.814Z,13.60
2019-03-01T19:16:56.074Z,12.50
2019-03-01T19:19:24.014Z,12.80
2019-03-01T19:21:52.747Z,13.23
2019-03-01T19:24:19.307Z,15.80
2019-03-01T19:26:46.027Z,14.70
2019-03-01T19:29:12.318Z,15.83
2019-03-01T19:31:39.939Z,14.80
2019-03-01T19:34:06.335Z,16.40
2019-03-01T19:36:35.519Z,13.47
2019-03-01T19:39:01.550Z,14.13
2019-03-01T19:41:29.858Z,13.53
2019-03-01T19:43:57.778Z,14.80
2019-03-01T19:46:26.413Z,15.90
2019-03-01T19:48:52.906Z,14.27
2019-03-01T19:51:20.429Z,15.13
2019-03-01T19:53:46.964Z,13.07
2019-03-01T19:56:13.245Z,14.83
2019-03-01T19:58:39.519Z,14.30
2019-03-01T20:01:05.815Z,14.53
2019-03-01T20:03:32.237Z,14.67
2019-03-01T20:05:58.643Z,15.47
2019-03-01T20:08:26.498Z,13.53
2019-03-01T20:10:53.177Z,13.80
2019-03-01T20:13:19.768Z,11.90
2019-03-01T20:15:47.332Z,12.07
2019-03-01T20:18:13.763Z,12.50
2019-03-01T20:20:40.446Z,12.93
2019-03-01T20:23:07.050Z,13.43
2019-03-01T20:25:33.347Z,11.60
2019-03-01T20:27:59.891Z,11.77
2019-03-01T20:30:30.683Z,11.57
2019-03-01T20:32:57.347Z,11.87
2019-03-01T20:35:25.783Z,11.90
2019-03-01T20:37:52.099Z,12.87
2019-03-01T20:40:18.495Z,12.47
2019-03-01T20:42:45.288Z,13.77
2019-03-01T20:45:30.017Z,13.70
2019-03-01T20:47:54.594Z,13.17
2019-03-01T20:50:21.280Z,11.83
2019-03-01T20:52:47.764Z,12.67
2019-03-01T20:55:14.526Z,11.87
2019-03-01T20:57:41.004Z,12.67
2019-03-01T21:00:16.690Z,11.47
2019-03-01T21:02:43.255Z,12.40
2019-03-01T21:05:11.588Z,12.93
2019-03-01T21:07:38.598Z,11.80
2019-03-01T21:10:15.962Z,11.47
2019-03-01T21:12:42.519Z,11.77
2019-03-01T21:15:11.759Z,13.60
2019-03-01T21:17:38.271Z,12.67
2019-03-01T21:20:07.969Z,12.77
2019-03-01T21:22:36.608Z,12.00
2019-03-01T21:25:04.976Z,12.60
2019-03-01T21:27:31.283Z,11.47
2019-03-01T21:29:57.654Z,11.90
2019-03-01T21:32:23.949Z,12.90
2019-03-01T21:34:50.493Z,11.80
2019-03-01T21:37:16.790Z,12.07
2019-03-01T21:39:43.438Z,11.40
2019-03-01T21:42:09.827Z,11.40
2019-03-01T21:44:36.467Z,11.63
2019-03-01T21:47:02.864Z,11.23
2019-03-01T21:49:29.161Z,11.87
2019-03-01T21:51:56.554Z,10.60
2019-03-01T21:54:22.827Z,11.53
2019-03-01T21:56:56.115Z,11.57
2019-03-01T21:59:18.540Z,10.87
2019-03-01T22:01:45.035Z,10.00
2019-03-01T22:04:11.343Z,11.77
2019-03-01T22:06:37.610Z,11.63
2019-03-01T22:09:06.028Z,11.77
2019-03-01T22:11:34.514Z,11.77
2019-03-01T22:14:01.159Z,12.23
2019-03-01T22:16:27.444Z,12.37
2019-03-01T22:18:55.475Z,12.23
2019-03-01T22:21:22.822Z,11.87
2019-03-01T22:23:51.498Z,12.80
2019-03-01T22:26:18.483Z,11.80
2019-03-01T22:28:46.141Z,11.80
2019-03-01T22:31:12.420Z,11.93
2019-03-01T22:33:38.709Z,12.73
2019-03-01T22:36:04.987Z,12.77
2019-03-01T22:38:31.483Z,12.03
2019-03-01T22:41:00.579Z,11.83
2019-03-01T22:43:27.336Z,12.27
2019-03-01T22:45:55.011Z,14.77
2019-03-01T22:48:21.310Z,13.90
2019-03-01T22:50:47.922Z,14.30
2019-03-01T22:53:14.639Z,13.83
2019-03-01T22:55:41.138Z,15.37
2019-03-01T22:58:07.518Z,14.10
2019-03-01T23:00:57.915Z,14.33
2019-03-01T23:03:25.092Z,13.47
2019-03-01T23:05:51.547Z,14.07
2019-03-01T23:08:17.956Z,14.80
2019-03-01T23:10:44.685Z,14.03
2019-03-01T23:13:11.117Z,15.40
2019-03-01T23:15:39.434Z,15.83
2019-03-01T23:18:06.688Z,15.83
2019-03-01T23:20:33.222Z,16.03
2019-03-01T23:22:59.639Z,14.87
2019-03-01T23:25:26.366Z,16.40
2019-03-01T23:27:53.279Z,15.77
2019-03-01T23:30:19.663Z,15.20
2019-03-01T23:32:48.782Z,16.90
2019-03-01T23:35:14.668Z,16.63
2019-03-01T23:37:42.422Z,15.47
2019-03-01T23:40:08.926Z,16.70
2019-03-01T23:42:35.403Z,15.07
2019-03-01T23:45:02.005Z,15.50
2019-03-01T23:47:28.739Z,15.37
2019-03-01T23:49:55.615Z,14.43
2019-03-01T23:52:23.718Z,14.80
2019-03-01T23:54:50.075Z,16.23
2019-03-01T23:57:16.637Z,17.47
2019-03-01T23:59:43.039Z,15.33
